createdAt,value
2023-11-18T00:00:18.190Z,81.11
2023-11-18T00:05:25.157Z,81.44
2023-11-18T00:10:31.798Z,81.45
2023-11-18T00:15:37.561Z,81.71
2023-11-18T00:20:44.418Z,81.86
2023-11-18T00:25:50.407Z,82.07
2023-11-18T00:30:56.539Z,82.07
2023-11-18T00:36:02.592Z,81.76
2023-11-18T00:41:10.510Z,82.21
2023-11-18T00:46:16.288Z,81.87
2023-11-18T00:51:22.052Z,82.26
2023-11-18T00:56:28.896Z,82.17
2023-11-18T01:01:34.718Z,82.62
2023-11-18T01:06:40.754Z,82.37
2023-11-18T01:12:07.208Z,82.65
2023-11-18T01:17:13.020Z,82.69
2023-11-18T01:22:19.973Z,82.74
2023-11-18T01:27:25.739Z,82.90
2023-11-18T01:32:32.269Z,82.94
2023-11-18T01:37:38.091Z,82.72
2023-11-18T01:42:47.662Z,82.97
2023-11-18T01:47:53.668Z,82.78
2023-11-18T01:53:02.447Z,82.68
2023-11-18T01:58:12.471Z,82.96
2023-11-18T02:03:18.302Z,82.60
2023-11-18T02:08:26.073Z,82.50
2023-11-18T02:13:38.459Z,82.18
2023-11-18T02:18:47.987Z,82.29
2023-11-18T02:23:54.585Z,82.40
2023-11-18T02:28:59.879Z,82.35
2023-11-18T02:34:17.819Z,82.48
2023-11-18T02:39:35.175Z,82.54
2023-11-18T02:44:41.823Z,82.72
2023-11-18T02:49:50.269Z,82.74
2023-11-18T02:54:56.201Z,82.68
2023-11-18T03:00:05.757Z,82.61
2023-11-18T03:05:13.226Z,82.85
2023-11-18T03:10:23.497Z,82.95
2023-11-18T03:15:29.468Z,82.87
2023-11-18T03:20:36.110Z,82.87
2023-11-18T03:25:41.891Z,82.91
2023-11-18T03:30:48.262Z,82.94
2023-11-18T03:35:54.105Z,82.89
2023-11-18T03:41:00.563Z,83.12
2023-11-18T03:46:05.169Z,83.00
2023-11-18T03:51:10.958Z,82.95
2023-11-18T03:56:20.640Z,83.02
2023-11-18T04:01:28.708Z,82.92
2023-11-18T04:06:34.493Z,83.04
2023-11-18T04:11:41.855Z,82.87
2023-11-18T04:16:48.711Z,83.00
2023-11-18T04:21:54.460Z,83.13
2023-11-18T04:27:01.070Z,83.11
2023-11-18T04:32:05.731Z,82.93
2023-11-18T04:37:11.515Z,83.06
2023-11-18T04:42:17.937Z,83.28
2023-11-18T04:47:23.740Z,83.23
2023-11-18T04:52:29.781Z,83.20
2023-11-18T04:57:36.253Z,83.51
2023-11-18T05:02:43.308Z,83.51
2023-11-18T05:07:49.136Z,83.51
2023-11-18T05:12:57.283Z,83.54
2023-11-18T05:18:03.131Z,83.58
2023-11-18T05:23:11.470Z,83.58
2023-11-18T05:28:18.368Z,83.76
2023-11-18T05:33:24.170Z,83.83
2023-11-18T05:38:33.810Z,83.43
2023-11-18T05:43:42.393Z,83.46
2023-11-18T05:48:49.749Z,83.61
2023-11-18T05:53:56.538Z,83.69
2023-11-18T05:59:04.700Z,83.28
2023-11-18T06:04:11.200Z,83.11
2023-11-18T06:09:22.464Z,83.17
2023-11-18T06:14:28.991Z,83.32
2023-11-18T06:19:34.996Z,83.13
2023-11-18T06:24:40.800Z,83.23
2023-11-18T06:29:46.904Z,83.06
2023-11-18T06:34:52.701Z,83.33
2023-11-18T06:39:58.472Z,83.26
2023-11-18T06:45:07.206Z,83.52
2023-11-18T06:50:15.585Z,83.43
2023-11-18T06:55:21.586Z,83.21
2023-11-18T07:00:29.629Z,83.12
2023-11-18T07:05:35.570Z,83.30
2023-11-18T07:10:42.601Z,83.15
2023-11-18T07:15:48.412Z,83.09
2023-11-18T07:20:54.238Z,82.68
2023-11-18T07:26:00.109Z,82.27
2023-11-18T07:31:06.650Z,81.95
2023-11-18T07:36:13.148Z,82.04
2023-11-18T07:41:24.875Z,82.12
2023-11-18T07:46:32.588Z,81.92
2023-11-18T07:51:38.775Z,81.99
2023-11-18T07:56:49.405Z,81.97
2023-11-18T08:01:55.782Z,81.97
2023-11-18T08:07:01.635Z,81.88
2023-11-18T08:12:10.561Z,82.15
2023-11-18T08:17:16.394Z,82.41
2023-11-18T08:22:24.438Z,82.35
2023-11-18T08:27:30.534Z,82.22
2023-11-18T08:32:40.165Z,82.04
2023-11-18T08:37:48.971Z,82.09
2023-11-18T08:42:57.425Z,81.65
2023-11-18T08:48:08.564Z,81.54
2023-11-18T08:53:20.005Z,81.71
2023-11-18T08:58:29.644Z,81.62
2023-11-18T09:03:44.901Z,81.60
2023-11-18T09:08:54.834Z,81.86
2023-11-18T09:14:02.616Z,81.78
2023-11-18T09:19:09.642Z,81.70
2023-11-18T09:24:16.489Z,81.52
2023-11-18T09:29:25.364Z,81.63
2023-11-18T09:34:34.851Z,81.53
2023-11-18T09:39:47.375Z,81.62
2023-11-18T09:44:55.065Z,81.10
2023-11-18T09:50:04.931Z,80.51
2023-11-18T09:55:21.174Z,80.43
2023-11-18T10:00:34.295Z,80.62
2023-11-18T10:05:43.358Z,80.56
2023-11-18T10:10:50.831Z,80.65
2023-11-18T10:15:58.941Z,80.01
2023-11-18T10:21:09.634Z,80.21
2023-11-18T10:26:16.293Z,79.85
2023-11-18T10:31:25.560Z,79.46
2023-11-18T10:36:34.694Z,79.86
2023-11-18T10:41:49.375Z,79.95
2023-11-18T10:47:00.470Z,79.88
2023-11-18T10:52:10.172Z,79.40
2023-11-18T10:57:16.388Z,79.04
2023-11-18T11:02:25.801Z,79.15
2023-11-18T11:07:35.663Z,79.06
2023-11-18T11:12:53.438Z,78.78
2023-11-18T11:18:10.405Z,78.14
2023-11-18T11:23:24.285Z,77.52
2023-11-18T11:28:45.441Z,77.50
2023-11-18T11:34:01.060Z,77.13
2023-11-18T11:39:12.166Z,78.02
2023-11-18T11:44:20.833Z,77.94
2023-11-18T11:49:31.388Z,77.97
2023-11-18T11:54:46.345Z,77.68
2023-11-18T12:00:16.592Z,77.80
2023-11-18T12:05:27.913Z,77.56
2023-11-18T12:10:37.530Z,77.93
2023-11-18T12:15:59.010Z,77.95
2023-11-18T12:21:05.729Z,77.86
2023-11-18T12:26:45.276Z,77.90
2023-11-18T12:31:52.020Z,77.37
2023-11-18T12:37:49.107Z,77.52
2023-11-18T12:43:07.870Z,77.67
2023-11-18T12:48:19.572Z,77.59
2023-11-18T12:53:27.757Z,77.84
2023-11-18T12:58:34.939Z,77.75
2023-11-18T13:03:42.136Z,77.88
2023-11-18T13:08:48.115Z,77.78
2023-11-18T13:13:55.737Z,77.61
2023-11-18T13:19:01.599Z,77.46
2023-11-18T13:24:09.676Z,77.74
2023-11-18T13:29:17.353Z,77.69
2023-11-18T13:34:23.545Z,77.85
2023-11-18T13:39:29.764Z,77.89
2023-11-18T13:44:40.733Z,77.79
2023-11-18T13:49:48.729Z,77.73
2023-11-18T13:54:57.436Z,77.47
2023-11-18T14:00:07.893Z,77.67
2023-11-18T14:05:22.945Z,77.74
2023-11-18T14:10:29.516Z,77.68
2023-11-18T14:15:35.776Z,77.81
2023-11-18T14:20:41.727Z,77.81
2023-11-18T14:25:47.848Z,77.84
2023-11-18T14:30:53.949Z,77.67
2023-11-18T14:35:59.720Z,77.82
2023-11-18T14:41:05.878Z,78.04
2023-11-18T14:46:11.942Z,78.20
2023-11-18T14:51:18.455Z,78.14
2023-11-18T14:56:24.593Z,77.77
2023-11-18T15:01:30.566Z,77.89
2023-11-18T15:06:36.339Z,78.02
2023-11-18T15:11:42.097Z,77.83
2023-11-18T15:16:48.231Z,78.02
2023-11-18T15:21:53.971Z,77.92
2023-11-18T15:27:01.366Z,77.97
2023-11-18T15:32:09.676Z,77.94
2023-11-18T15:37:15.667Z,77.91
2023-11-18T15:42:21.460Z,77.61
2023-11-18T15:47:27.294Z,77.44
2023-11-18T15:52:35.612Z,77.48
2023-11-18T15:57:43.518Z,77.05
2023-11-18T16:02:52.168Z,77.07
2023-11-18T16:07:59.739Z,76.77
2023-11-18T16:13:05.509Z,76.53
2023-11-18T16:18:11.331Z,76.55
2023-11-18T16:23:17.099Z,76.56
2023-11-18T16:28:22.842Z,75.92
2023-11-18T16:33:28.612Z,76.03
2023-11-18T16:38:34.492Z,75.83
2023-11-18T16:43:41.144Z,76.09
2023-11-18T16:48:45.309Z,75.94
2023-11-18T16:53:53.524Z,76.20
2023-11-18T16:59:00.972Z,76.12
2023-11-18T17:04:08.773Z,76.18
2023-11-18T17:09:14.818Z,76.21
2023-11-18T17:14:20.716Z,76.22
2023-11-18T17:19:27.455Z,76.10
2023-11-18T17:24:34.009Z,76.22
2023-11-18T17:29:39.729Z,75.91
2023-11-18T17:34:45.564Z,75.91
2023-11-18T17:39:51.322Z,75.76
2023-11-18T17:44:57.587Z,75.77
2023-11-18T17:50:09.467Z,75.58
2023-11-18T17:55:16.096Z,75.85
2023-11-18T18:00:24.803Z,76.09
2023-11-18T18:05:31.237Z,75.67
2023-11-18T18:10:37.212Z,75.58
2023-11-18T18:15:43.203Z,75.73
2023-11-18T18:20:50.604Z,75.36
2023-11-18T18:25:56.726Z,75.57
2023-11-18T18:31:02.631Z,75.28
2023-11-18T18:36:11.299Z,75.76
2023-11-18T18:41:17.019Z,75.69
2023-11-18T18:46:23.415Z,75.35
2023-11-18T18:51:29.234Z,75.49
2023-11-18T18:56:35.245Z,75.75
2023-11-18T19:01:41.186Z,75.05
2023-11-18T19:06:47.920Z,75.24
2023-11-18T19:11:52.613Z,75.24
2023-11-18T19:16:58.523Z,74.87
2023-11-18T19:22:07.510Z,75.17
2023-11-18T19:27:15.596Z,75.22
2023-11-18T19:32:21.349Z,75.12
2023-11-18T19:37:27.280Z,74.60
2023-11-18T19:42:33.729Z,74.55
2023-11-18T19:47:40.015Z,74.42
2023-11-18T19:52:46.242Z,74.48
2023-11-18T19:57:51.942Z,74.46
2023-11-18T20:02:57.920Z,74.28
2023-11-18T20:08:03.844Z,74.55
2023-11-18T20:13:09.677Z,74.18
2023-11-18T20:18:15.529Z,74.26
2023-11-18T20:23:22.811Z,74.72
2023-11-18T20:28:28.659Z,74.67
2023-11-18T20:33:42.399Z,74.28
2023-11-18T20:38:48.936Z,73.82
2023-11-18T20:43:54.663Z,72.68
2023-11-18T20:49:00.531Z,73.23
2023-11-18T20:54:08.586Z,73.05
2023-11-18T20:59:14.481Z,72.95
2023-11-18T21:04:21.185Z,73.08
2023-11-18T21:09:28.295Z,73.72
2023-11-18T21:14:35.121Z,73.15
2023-11-18T21:19:41.789Z,74.01
2023-11-18T21:24:45.989Z,73.64
2023-11-18T21:29:51.971Z,73.53
2023-11-18T21:34:57.972Z,73.84
2023-11-18T21:40:06.154Z,73.96
2023-11-18T21:45:15.183Z,74.25
2023-11-18T21:50:22.436Z,74.23
2023-11-18T21:55:30.506Z,74.00
2023-11-18T22:00:45.048Z,74.34
2023-11-18T22:05:51.985Z,74.12
2023-11-18T22:10:59.531Z,74.59
2023-11-18T22:16:06.282Z,74.65
2023-11-18T22:21:12.052Z,75.04
2023-11-18T22:26:19.370Z,75.14
2023-11-18T22:31:27.182Z,75.42
2023-11-18T22:36:33.540Z,75.42
2023-11-18T22:41:39.440Z,75.13
2023-11-18T22:46:45.342Z,76.16
2023-11-18T22:51:52.235Z,75.60
2023-11-18T22:56:57.564Z,75.33
2023-11-18T23:02:05.045Z,75.62
2023-11-18T23:07:11.093Z,75.32
2023-11-18T23:12:16.817Z,76.14
2023-11-18T23:17:24.652Z,76.42
2023-11-18T23:22:30.462Z,76.00
2023-11-18T23:27:38.081Z,76.27
2023-11-18T23:32:44.211Z,76.01
2023-11-18T23:37:52.430Z,76.33
2023-11-18T23:42:58.640Z,76.13
2023-11-18T23:48:04.671Z,75.76
2023-11-18T23:53:11.116Z,76.86
2023-11-18T23:58:16.951Z,76.45
